Have a Safe July 4th! 

Flight Track Log - Related Links

Times and Time Zones

All times are in EST time to prevent confusion due to time zone crossing. See the SWA387 flight status page for this flight to view local times or setup timezone preferences in your user account.

Time Position Orientation Groundspeed Altitude Reporting Facility
EST Latitude Longitude Course Direction KTS MPH feet Rate Location/Type
Wed 09:51:02 PM 41.7833 -87.8000 167° South 177 204 2,700  Level Chicago TRACON
Wed 09:51:57 PM 41.7333 -87.8333 206° Southwest 224 258 6,600 3,669 Climbing Chicago TRACON
Wed 09:53:21 PM 41.6536 -87.7786 153° Southeast 299 344 11,200 3,062 Climbing Chicago Center
Wed 09:54:22 PM 41.5644 -87.6989 146° Southeast 369 425 14,000 2,976 Climbing Chicago Center
Wed 09:55:24 PM 41.4683 -87.6111 146° Southeast 413 475 17,300 3,024 Climbing Chicago Center
Wed 09:56:00 PM 41.4243 -87.1232 167° South  Level Estimated
Wed 09:56:25 PM 41.3525 -87.5592 161° South 445 512 20,200  Level Chicago Center
Wed 09:57:26 PM 41.2169 -87.5336 172° South 447 514 23,100 2,705 Climbing Chicago Center
Wed 09:58:27 PM 41.0869 -87.4708 160° South 493 567 25,700 2,244 Climbing Chicago Center
Wed 09:59:29 PM 40.9425 -87.3939 158° South 515 593 27,700 2,098 Climbing Chicago Center
Wed 10:00:30 PM 40.8047 -87.3214 158° South 533 613 30,000 2,262 Climbing Chicago Center
Wed 10:01:31 PM 40.6578 -87.2447 158° South 537 618 32,300 2,410 Climbing Chicago Center
Wed 10:02:32 PM 40.5225 -87.1756 159° South 529 609 34,900 2,000 Climbing Chicago Center
Wed 10:03:34 PM 40.3889 -87.1069 159° South 519 597 36,400 1,610 Climbing Chicago Center
Wed 10:04:35 PM 40.2553 -87.0386 159° South 519 597 38,200 1,672 Climbing Chicago Center
Wed 10:05:36 PM 40.1436 -86.9164 140° Southeast 538 619 39,800 1,648 Climbing Chicago Center
Wed 10:06:06 PM 40.0969 -86.8156 121° Southeast 536 617 40,700 791 Climbing Indianapolis Center
Wed 10:07:07 PM 40.0339 -86.6394 115° Southeast 538 619 41,000 148 Climbing Indianapolis Center
Wed 10:08:08 PM 39.9678 -86.4628 116° Southeast 540 621 41,000  Level Indianapolis Center
Wed 10:09:09 PM 39.9006 -86.2853 116° Southeast 540 621 41,000  Level Indianapolis Center
Wed 10:10:10 PM 39.8347 -86.1061 116° Southeast 537 618 41,000  Level Indianapolis Center
Wed 10:11:11 PM 39.7692 -85.9286 116° Southeast 538 619 41,000  Level Indianapolis Center
Wed 10:12:12 PM 39.7036 -85.7536 116° Southeast 538 619 41,000  Level Indianapolis Center
Wed 10:13:13 PM 39.6369 -85.5786 116° Southeast 542 624 41,000  Level Indianapolis Center
Wed 10:14:14 PM 39.5708 -85.4031 116° Southeast 542 624 41,000  Level Indianapolis Center
Wed 10:15:15 PM 39.5047 -85.2292 116° Southeast 542 624 41,000  Level Indianapolis Center
Wed 10:16:16 PM 39.4369 -85.0539 117° Southeast 543 625 41,000  Level Indianapolis Center
Wed 10:17:17 PM 39.3617 -84.8639 117° Southeast 544 626 41,000  Level Indianapolis Center
Wed 10:18:18 PM 39.2950 -84.6914 116° Southeast 542 624 41,000  Level Indianapolis Center
Wed 10:19:19 PM 39.2267 -84.5189 117° Southeast 541 623 41,000  Level Indianapolis Center
Wed 10:20:20 PM 39.1606 -84.3483 117° Southeast 538 619 41,000  Level Indianapolis Center
Wed 10:21:21 PM 39.0922 -84.1764 117° Southeast 542 624 41,000  Level Indianapolis Center
Wed 10:22:22 PM 39.0222 -84.0044 118° Southeast 545 627 41,000  Level Indianapolis Center
Wed 10:23:23 PM 38.9536 -83.8317 117° Southeast 546 628 41,000  Level Indianapolis Center
Wed 10:24:24 PM 38.8836 -83.6586 117° Southeast 550 633 41,000  Level Indianapolis Center
Wed 10:25:25 PM 38.8006 -83.4514 117° Southeast 549 632 41,000  Level Indianapolis Center
Wed 10:26:26 PM 38.7311 -83.2819 118° Southeast 543 625 41,000  Level Indianapolis Center
Wed 10:27:27 PM 38.6675 -83.1283 118° Southeast 542 624 41,000  Level Indianapolis Center
Wed 10:28:28 PM 38.5936 -82.9489 118° Southeast 541 623 41,000  Level Indianapolis Center
Wed 10:29:29 PM 38.5225 -82.7772 118° Southeast 544 626 41,000  Level Indianapolis Center
Wed 10:30:29 PM 38.4511 -82.6072 118° Southeast 542 624 41,000  Level Indianapolis Center
Wed 10:31:30 PM 38.3700 -82.4150 118° Southeast 544 626 41,000  Level Indianapolis Center
Wed 10:32:31 PM 38.2972 -82.2439 118° Southeast 549 632 41,000  Level Indianapolis Center
Wed 10:33:32 PM 38.2281 -82.0786 118° Southeast 536 617 41,000  Level Indianapolis Center
Wed 10:34:33 PM 38.1550 -81.9092 119° Southeast 545 627 41,000  Level Indianapolis Center
Wed 10:35:34 PM 38.0817 -81.7411 119° Southeast 547 629 41,000  Level Indianapolis Center
Wed 10:36:35 PM 38.0103 -81.5728 118° Southeast 546 628 41,000 -344 Level Indianapolis Center
Wed 10:37:36 PM 37.9333 -81.3989 119° Southeast 544 626 40,300 -1,672 Descending Indianapolis Center
Wed 10:38:37 PM 37.8636 -81.2389 119° Southeast 544 626 37,600 -2,852 Descending Indianapolis Center
Wed 10:39:38 PM 37.7903 -81.0728 119° Southeast 541 623 34,500 -3,246 Descending Indianapolis Center
Wed 10:40:39 PM 37.7172 -80.9019 118° Southeast 556 640 31,000 -2,754 Descending Indianapolis Center
Wed 10:41:40 PM 37.6239 -80.6953 120° Southeast 574 661 28,900 -1,604 Descending Indianapolis Center
Wed 10:42:20 PM 37.5786 -80.5997 121° Southeast 571 657 28,300 -960 Descending Washington Center
Wed 10:43:20 PM 37.5003 -80.4244 119° Southeast 571 657 27,300 -1,000 Descending Washington Center
Wed 10:44:20 PM 37.4147 -80.2647 124° Southeast 571 657 26,300 -1,008 Descending Washington Center
Wed 10:45:19 PM 37.3247 -80.1103 126° Southeast 560 644 25,300 -1,100 Descending Washington Center
Wed 10:46:20 PM 37.2264 -79.9453 127° Southeast 547 629 24,100 -1,082 Descending Washington Center
Wed 10:47:21 PM 37.1381 -79.7969 127° Southeast 542 624 23,100 -1,000 Descending Washington Center
Wed 10:48:20 PM 37.0467 -79.6619 130° Southeast 536 617 22,100 -1,000 Descending Washington Center
Wed 10:49:21 PM 36.9519 -79.5581 139° Southeast 511 588 21,100 -958 Descending Washington Center
Wed 10:50:19 PM 36.8514 -79.4439 138° Southeast 500 575 20,200 -942 Descending Washington Center
Wed 10:51:22 PM 36.7528 -79.3300 137° Southeast 490 564 19,200 -984 Descending Washington Center
Wed 10:52:21 PM 36.6561 -79.2219 138° Southeast 490 564 18,200 -1,074 Descending Washington Center
Wed 10:52:57 PM 36.5894 -79.1514 140° Southeast 469 540 17,500 -1,571 Descending Washington Center
Wed 10:53:03 PM 36.5772 -79.1328 129° Southeast 468 539 17,100 -2,609 Descending Washington Center
Wed 10:53:20 PM 36.5511 -79.1058 140° Southeast 478 550 16,500 -2,710 Descending Washington Center
Wed 10:54:05 PM 36.4822 -79.0303 139° Southeast 455 524 14,300 -2,800 Descending Washington Center
Wed 10:54:20 PM 36.4581 -79.0033 138° Southeast 462 532 13,700 -1,672 Descending Washington Center
Wed 10:55:06 PM 36.3883 -78.9567 152° Southeast 400 460 12,600 -1,377 Descending Washington Center
Wed 10:55:21 PM 36.3592 -78.9553 178° South 384 442 12,300 -1,100 Descending Washington Center
Wed 10:56:06 PM 36.2883 -78.9547 180° South 338 389 11,500 -1,034 Descending Washington Center
Wed 10:56:19 PM 36.2717 -78.9514 171° South 352 405 11,300 -1,200 Descending Washington Center
Wed 10:57:21 PM 36.1717 -78.9447 177° South 332 382 10,000 -1,458 Descending Washington Center
Wed 10:58:06 PM 36.1133 -78.9472 182° South 285 328 8,700 -1,672 Descending Washington Center
Wed 10:58:22 PM 36.0925 -78.9439 173° South 307 353 8,300 -1,869 Descending Washington Center
Wed 10:59:07 PM 36.0300 -78.9386 176° South 272 313 6,800 -1,800 Descending Washington Center
Wed 10:59:22 PM 36.0156 -78.9328 162° South 289 333 6,500 -1,967 Descending Washington Center
Wed 11:00:08 PM 35.9575 -78.9228 172° South 259 298 4,800 -1,966 Descending Washington Center
Wed 11:00:20 PM 35.9450 -78.9197 169° South 277 319 4,600 -2,164 Descending Washington Center
Wed 11:01:09 PM 35.8889 -78.9097 172° South 240 276 2,600 -2,066 Descending Washington Center
Wed 11:01:21 PM 35.8825 -78.9119 196° South 259 298 2,500 -507 Descending Washington Center
Wed 11:02:20 PM 35.8414 -78.8897 156° South 229 264 2,000 -617 Descending Washington Center
Wed 11:03:08 PM 35.8303 -78.8456 107° East 145 167 1,400 -764 Descending Washington Center
Wed 11:04:10 PM 35.8561 -78.8108 47° Northeast 136 157 600 -774 Descending Washington Center
Wed 11:06:00 PM 35.8667 -78.7833 90° East  Level FlightAware Approximate

Login

Don't have an account? Register now (free) for customized features, flight alerts, and more!